Monday, June 25, 2018, 7:26 PM GMT
Back to Local

CYCX, Gagetown Can-Mil

Location: , , Canada Lat: 45.833
Local Time: 7:26 PM GMT (19:26 GMT) Lon: -66.433
Time Zone: GMT Elev: 167 ft

Show me the last for .
Show Decoded

2018-06-25 19:00 METAR CYCX 251900Z 04013G19KT 15SM FEW025 BKN060 17/07 A2993 RMK CU2SC4 DA524FT
                 SLP136 =
2018-06-25 18:00 METAR CYCX 251800Z 04013G20KT 15SM BKN016 BKN050 16/09 A2992 RMK SC5SC2 DA432FT
                 SLP134 =
2018-06-25 17:00 METAR CYCX 251700Z 01013G19KT 15SM BKN016 BKN050 14/10 A2992 RMK SC5SC2 DA183FT
                 SLP134 =
2018-06-25 16:38 METAR CYCX 251638Z 01015G20KT 15SM SCT016 BKN050 13/10 A2992 RMK SC3SC3 DA179FT
                 SLP132 =
2018-06-25 16:00 METAR CYCX 251600Z 01011G17KT 15SM BKN010 OVC040 12/10 A2992 RMK SF6SC2 DA-38FT
                 SLP133 =
2018-06-25 15:45 METAR CYCX 251545Z 01008KT 12SM BKN010 OVC050 12/11 A2991 RMK SF5SC3 DA2FT
                 SLP131 =
2018-06-25 15:00 METAR CYCX 251500Z 03007KT 12SM -RA SCT010 OVC050 11/10 A2992 RMK SF4SC4
                 DA-126FT PCPN VRY LGT SLP132 =
2018-06-25 14:00 METAR CYCX 251400Z 01009KT 10SM -RA OVC010 10/10 A2993 RMK SF8 DA-196FT SLP135 =
2018-06-25 13:00 METAR CYCX 251300Z 03007KT 010V080 9SM -RA OVC009 10/10 A2991 RMK SF8 DA-186FT
                 SLP128 =
2018-06-25 12:00 METAR CYCX 251200Z 04007KT 360V070 8SM -RA OVC009 10/10 A2991 RMK SF8 DA-224FT
                 SLP129 =
2018-06-25 11:00 METAR CYCX 251100Z 01008KT 8SM -RA OVC005 10/10 A2990 RMK SF8 DA-211FT CIG VRB
                 3-7 SLP126 =
2018-06-25 10:00 METAR CYCX 251000Z 03010KT 5SM -RA OVC005 10/10 A2988 RMK SF8 DA-188FT CIG VRB
                 3-7 SLP120 =
2018-06-25 09:00 METAR CYCX 250900Z 03008KT 010V070 12SM -RA OVC007 10/10 A2987 RMK SF8 DA-151FT
                 SLP114 =
2018-06-25 08:00 METAR CYCX 250800Z 03007KT 12SM -RA BKN005 OVC057 10/10 A2986 RMK SF6SC2
                 DA-151FT SLP110 =
2018-06-25 07:00 METAR CYCX 250700Z 03007KT 12SM -RA SCT005 OVC057 10/10 A2986 RMK SF4SC4
                 DA-164FT SLP113 =
2018-06-25 06:00 METAR CYCX 250600Z 03007KT 7SM -RA SCT009 OVC057 10/10 A2987 RMK SF4SC4 DA-151FT
                 SLP115 =
2018-06-25 05:00 METAR CYCX 250500Z 04005KT 12SM -RA SCT008 OVC047 11/11 A2987 RMK SF4SC4 DA-71FT
                 SLP116 =
2018-06-25 04:00 METAR CYCX 250400Z 03004KT 9SM -RA FEW004 OVC043 11/11 A2988 RMK SF2SC6 DA-57FT
                 SLP120 =
2018-06-25 03:26 METAR CYCX 250326Z 03006KT 360V060 12SM -RA SCT006 OVC041 11/11 A2988 RMK SF3SC5
                 DA-7FT SLP119 =
2018-06-25 03:00 METAR CYCX 250300Z 02004KT 340V050 9SM -RA BKN006 OVC041 12/11 A2989 RMK SF5SC3
                 DA-2FT SLP123 =
2018-06-25 02:16 METAR CYCX 250216Z 05005KT 3SM -RA BR BKN004 OVC037 12/12 A2988 RMK SF5SC3
                 DA24FT SLP121 =
2018-06-25 02:00 METAR CYCX 250200Z 07005KT 020V100 3SM -RA BR FEW004 OVC017 12/12 A2989 RMK
                 SF2SC6 DA12FT SLP122 =
2018-06-25 01:00 METAR CYCX 250100Z 06005KT 040V100 3SM -RA BR SCT010 OVC030 12/12 A2988 RMK
                 SF3SC5 DA62FT SLP120 =
2018-06-25 00:00 METAR CYCX 250000Z 05007KT 4SM -RA BR SCT011 BKN015 OVC045 13/13 A2986 RMK
                 SF3SC4SC1 DA252FT SLP113 =
2018-06-24 23:30 METAR CYCX 242330Z 04007KT 2 1/4SM -RA BR OVC015 14/14 A2985 RMK SC8 DA346FT
                 SLP108 =
2018-06-24 23:00 METAR CYCX 242300Z 04010KT 2 1/4SM RA BR BKN015 OVC035 15/14 A2983 RMK SC5SC3
                 DA470FT PRESRR SLP102 =
2018-06-24 22:50 METAR CYCX 242250Z 04011G17KT 4SM -RA BR BKN020 OVC040 15/15 A2982 RMK SC5SC3
                 DA546FT PRESRR SLP101 =
2018-06-24 22:22 METAR CYCX 242222Z 04015G20KT 15SM -RA FEW025 SCT040 OVC085 19/15 A2979 RMK
                 SC1SC2AC5 DA985FT PRESRR SLP087 =
2018-06-24 22:00 METAR CYCX 242200Z 28005KT 15SM BKN085 OVC100 21/15 A2976 RMK AC6AC2 DA1360FT
                 SLP079 =
2018-06-24 21:00 METAR CYCX 242100Z 31005KT 15SM OVC085 22/16 A2974 RMK AC8 DA1457FT SLP072 =
2018-06-24 20:00 METAR CYCX 242000Z 30006KT 270V330 15SM BKN080 22/15 A2973 RMK AC7 DA1475FT
                 SLP069 =

Support USWX by starting your Amazon purchase here.